Time;durP1;ratioP1;P1;durP2;ratioP2;P2;SDS_P1;SDS_P2;PMS_P1;PMS_P2;Temp;Humidity;BMP_temperature;BMP_pressure;BME280_temperature;BME280_humidity;BME280_pressure;Samples;Min_cycle;Max_cycle;Signal;HPM_P1;HPM_P2
2023/04/19 00:01:25;;;;;;;;;;;9.10;99.90;;;;;;5033897;28;19920;-77
2023/04/19 00:03:51;;;;;;;;;;;9.20;99.90;;;;;;5018578;28;19921;-77
2023/04/19 00:06:16;;;;;;;;;;;9.20;99.90;;;;;;5035953;28;20293;-77
2023/04/19 00:08:42;;;;;;;;;;;9.10;99.90;;;;;;5015536;28;19929;-77
2023/04/19 00:11:08;;;;;;;;;;;9.10;99.90;;;;;;5019566;28;19971;-77
2023/04/19 00:13:34;;;;;;;;;;;9.10;99.90;;;;;;5038508;28;19927;-77
2023/04/19 00:15:59;;;;;;;;;;;9.00;99.90;;;;;;5035437;28;19920;-77
2023/04/19 00:18:25;;;;;;;;;;;9.10;99.90;;;;;;5023621;28;19920;-77
2023/04/19 00:20:51;;;;;;;;;;;9.00;99.90;;;;;;5022079;28;19928;-77
2023/04/19 00:23:16;;;;;;;;;;;9.00;99.90;;;;;;5034857;28;19925;-77
2023/04/19 00:25:42;;;;;;;;;;;9.10;99.90;;;;;;5018832;28;19944;-77
2023/04/19 00:28:07;;;;;;;;;;;9.10;99.90;;;;;;5036743;28;20008;-77
2023/04/19 00:30:33;;;;;;;;;;;9.20;99.90;;;;;;5015112;28;20023;-77
2023/04/19 00:32:59;;;;;;;;;;;9.10;99.90;;;;;;5017710;28;19948;-77
2023/04/19 00:35:24;;;;;;;;;;;9.20;99.90;;;;;;5019766;28;19966;-77
2023/04/19 00:37:50;;;;;;;;;;;9.20;99.90;;;;;;5016502;28;19924;-77
2023/04/19 00:40:15;;;;;;;;;;;9.20;99.90;;;;;;5017425;28;19920;-77
2023/04/19 00:42:41;;;;;;;;;;;9.20;99.90;;;;;;5017332;28;20608;-77
2023/04/19 00:45:07;;;;;;;;;;;9.20;99.90;;;;;;5016723;28;20578;-77
2023/04/19 00:47:33;;;;;;;;;;;9.10;99.90;;;;;;5017626;28;19979;-77
2023/04/19 00:49:58;;;;;;;;;;;9.20;99.90;;;;;;5013213;28;19928;-77
2023/04/19 00:52:24;;;;;;;;;;;9.20;99.90;;;;;;5017853;28;20289;-77
2023/04/19 00:54:50;;;;;;;;;;;9.20;99.90;;;;;;5018233;28;19928;-77
2023/04/19 00:57:16;;;;;;;;;;;9.20;99.90;;;;;;5017368;28;20297;-77
2023/04/19 00:59:42;;;;;;;;;;;9.20;99.90;;;;;;5016980;28;19925;-77
2023/04/19 01:02:08;;;;;;;;;;;9.20;99.90;;;;;;5007440;28;20355;-77
2023/04/19 01:04:34;;;;;;;;;;;9.20;99.90;;;;;;5024033;28;19921;-77
2023/04/19 01:07:00;;;;;;;;;;;9.10;99.90;;;;;;5031983;28;19967;-77
2023/04/19 01:09:26;;;;;;;;;;;9.20;99.90;;;;;;5012119;28;19943;-77
2023/04/19 01:11:51;;;;;;;;;;;9.10;99.90;;;;;;5018377;28;20409;-77
2023/04/19 01:14:17;;;;;;;;;;;9.10;99.90;;;;;;5021081;28;19986;-77
2023/04/19 01:16:42;;;;;;;;;;;9.10;99.90;;;;;;5019307;28;19959;-77
2023/04/19 01:19:08;;;;;;;;;;;9.10;99.90;;;;;;5020944;28;19920;-77
2023/04/19 01:21:37;;;;;;;;;;;9.10;99.90;;;;;;5032383;28;20366;-77
2023/04/19 01:24:02;;;;;;;;;;;9.20;99.90;;;;;;5015876;28;20420;-77
2023/04/19 01:26:28;;;;;;;;;;;9.20;99.90;;;;;;5019755;28;19920;-77
2023/04/19 01:28:53;;;;;;;;;;;9.20;99.90;;;;;;5036450;28;19936;-77
2023/04/19 01:31:19;;;;;;;;;;;9.20;99.90;;;;;;5017258;28;19929;-77
2023/04/19 01:33:44;;;;;;;;;;;9.20;99.90;;;;;;5018821;28;19940;-77
2023/04/19 01:36:10;;;;;;;;;;;9.30;99.90;;;;;;5035758;28;19928;-77
2023/04/19 01:38:36;;;;;;;;;;;9.30;99.90;;;;;;5034708;28;19928;-77
2023/04/19 01:41:01;;;;;;;;;;;9.30;99.90;;;;;;5018844;28;19924;-77
2023/04/19 01:43:27;;;;;;;;;;;9.20;99.90;;;;;;5019183;28;19931;-77
2023/04/19 01:45:52;;;;;;;;;;;9.30;99.90;;;;;;5017291;28;20356;-77
2023/04/19 01:48:18;;;;;;;;;;;9.30;99.90;;;;;;5017020;28;19971;-77
2023/04/19 01:50:43;;;;;;;;;;;9.30;99.90;;;;;;5018340;28;19965;-77
2023/04/19 01:53:09;;;;;;;;;;;9.20;99.90;;;;;;5019297;28;19932;-77
2023/04/19 01:55:34;;;;;;;;;;;9.20;99.90;;;;;;5021721;28;19944;-77
2023/04/19 01:58:00;;;;;;;;;;;9.20;99.90;;;;;;5016526;28;19928;-77
2023/04/19 02:00:25;;;;;;;;;;;9.20;99.90;;;;;;5028294;28;19996;-77
2023/04/19 02:02:51;;;;;;;;;;;9.10;99.90;;;;;;5018244;28;19984;-77
2023/04/19 02:05:17;;;;;;;;;;;9.10;99.90;;;;;;5022297;28;19982;-77
2023/04/19 02:07:42;;;;;;;;;;;9.10;99.90;;;;;;5037792;28;19936;-77
2023/04/19 02:10:08;;;;;;;;;;;9.20;99.90;;;;;;5016616;28;19920;-77
2023/04/19 02:12:35;;;;;;;;;;;9.20;99.90;;;;;;5027660;28;19962;-77
2023/04/19 02:15:03;;;;;;;;;;;9.20;99.90;;;;;;5030932;28;19937;-77
2023/04/19 02:17:29;;;;;;;;;;;9.10;99.90;;;;;;5020982;28;19974;-77
2023/04/19 02:19:55;;;;;;;;;;;9.10;99.90;;;;;;5016399;28;20370;-77
2023/04/19 02:22:20;;;;;;;;;;;9.10;99.90;;;;;;5016033;28;19921;-77
2023/04/19 02:24:46;;;;;;;;;;;9.10;99.90;;;;;;5036724;28;19921;-77
2023/04/19 02:27:12;;;;;;;;;;;9.10;99.90;;;;;;5018965;28;19931;-77
2023/04/19 02:29:38;;;;;;;;;;;9.00;99.90;;;;;;5024438;28;19928;-77
2023/04/19 02:32:05;;;;;;;;;;;9.00;99.90;;;;;;5023139;28;19928;-77
2023/04/19 02:34:31;;;;;;;;;;;9.00;99.90;;;;;;5026557;28;20351;-77
2023/04/19 02:36:57;;;;;;;;;;;9.00;99.90;;;;;;5017787;28;20285;-77
2023/04/19 02:39:22;;;;;;;;;;;9.00;99.90;;;;;;5016757;28;19921;-77
2023/04/19 02:41:48;;;;;;;;;;;9.00;99.90;;;;;;5039115;28;19931;-77
2023/04/19 02:44:13;;;;;;;;;;;9.00;99.90;;;;;;5025582;28;19921;-77
2023/04/19 02:46:39;;;;;;;;;;;8.90;99.90;;;;;;5019822;28;19924;-77
2023/04/19 02:49:05;;;;;;;;;;;8.90;99.90;;;;;;5019878;28;19927;-77
2023/04/19 02:51:30;;;;;;;;;;;9.00;99.90;;;;;;5023478;28;20792;-77
2023/04/19 02:53:56;;;;;;;;;;;8.90;99.90;;;;;;5007937;28;20301;-77
2023/04/19 02:56:21;;;;;;;;;;;9.00;99.90;;;;;;5021325;28;19924;-77
2023/04/19 02:58:47;;;;;;;;;;;8.90;99.90;;;;;;5021313;28;19931;-77
2023/04/19 03:01:12;;;;;;;;;;;8.90;99.90;;;;;;5019068;28;19935;-77
2023/04/19 03:03:38;;;;;;;;;;;8.80;99.90;;;;;;5005074;28;20004;-77
2023/04/19 03:06:03;;;;;;;;;;;8.80;99.90;;;;;;5020470;28;20007;-77
2023/04/19 03:08:29;;;;;;;;;;;8.90;99.90;;;;;;5036461;28;19921;-77
2023/04/19 03:10:55;;;;;;;;;;;8.80;99.90;;;;;;5023056;28;19947;-77
2023/04/19 03:13:20;;;;;;;;;;;8.80;99.90;;;;;;5023726;28;19995;-77
2023/04/19 03:15:46;;;;;;;;;;;8.70;99.90;;;;;;5020919;28;19921;-77
2023/04/19 03:18:11;;;;;;;;;;;8.70;99.90;;;;;;5021796;28;19974;-77
2023/04/19 03:20:37;;;;;;;;;;;8.70;99.90;;;;;;5023394;28;19928;-77
2023/04/19 03:23:03;;;;;;;;;;;8.50;99.90;;;;;;5024432;28;19924;-77
2023/04/19 03:25:28;;;;;;;;;;;8.40;99.90;;;;;;5021121;28;19927;-77
2023/04/19 03:27:55;;;;;;;;;;;8.40;99.90;;;;;;5020828;28;19927;-77
2023/04/19 03:30:20;;;;;;;;;;;8.20;99.90;;;;;;5020337;28;19956;-77
2023/04/19 03:32:46;;;;;;;;;;;8.10;99.90;;;;;;5021575;28;19999;-77
2023/04/19 03:35:12;;;;;;;;;;;8.00;99.90;;;;;;5018192;28;19940;-77
2023/04/19 03:37:38;;;;;;;;;;;8.00;99.90;;;;;;5024602;28;19925;-77
2023/04/19 03:40:04;;;;;;;;;;;7.90;99.90;;;;;;5038046;28;20523;-77
2023/04/19 03:42:29;;;;;;;;;;;7.80;99.90;;;;;;5021093;28;20273;-77
2023/04/19 03:44:55;;;;;;;;;;;7.60;99.90;;;;;;5039049;28;20739;-77
2023/04/19 03:47:21;;;;;;;;;;;7.50;99.90;;;;;;5021855;28;20370;-77
2023/04/19 03:49:47;;;;;;;;;;;7.40;99.90;;;;;;5040098;28;19925;-77
2023/04/19 03:52:12;;;;;;;;;;;7.40;99.90;;;;;;5038344;28;20029;-77
2023/04/19 03:54:38;;;;;;;;;;;7.20;99.90;;;;;;5022394;28;19921;-77
2023/04/19 03:57:04;;;;;;;;;;;7.20;99.90;;;;;;5018583;28;19916;-76
2023/04/19 03:59:30;;;;;;;;;;;7.00;99.90;;;;;;5021024;28;20167;-77
2023/04/19 04:01:55;;;;;;;;;;;7.10;99.90;;;;;;5016737;28;19931;-77
2023/04/19 04:04:21;;;;;;;;;;;6.80;99.90;;;;;;5038195;28;20215;-77
2023/04/19 04:06:47;;;;;;;;;;;6.80;99.90;;;;;;5022418;28;20047;-76
2023/04/19 04:09:12;;;;;;;;;;;6.90;99.90;;;;;;5020050;28;19921;-77
2023/04/19 04:11:38;;;;;;;;;;;6.80;99.90;;;;;;5022991;28;19956;-76
2023/04/19 04:14:03;;;;;;;;;;;6.70;99.90;;;;;;5022533;28;19920;-77
2023/04/19 04:16:29;;;;;;;;;;;6.70;99.90;;;;;;5036136;28;19974;-77
2023/04/19 04:18:54;;;;;;;;;;;6.70;99.90;;;;;;5017314;28;19921;-77
2023/04/19 04:21:21;;;;;;;;;;;6.60;99.90;;;;;;5023113;28;20281;-77
2023/04/19 04:23:48;;;;;;;;;;;6.50;99.90;;;;;;5018643;28;20677;-76
2023/04/19 04:26:14;;;;;;;;;;;6.70;99.90;;;;;;5022463;28;20272;-76
2023/04/19 04:28:39;;;;;;;;;;;6.50;99.90;;;;;;5018364;28;19921;-76
2023/04/19 04:31:05;;;;;;;;;;;6.60;99.90;;;;;;5020424;28;20003;-77
2023/04/19 04:33:30;;;;;;;;;;;6.50;99.90;;;;;;5020423;28;20830;-76
2023/04/19 04:35:57;;;;;;;;;;;6.40;99.90;;;;;;5020538;28;19927;-76
2023/04/19 04:38:23;;;;;;;;;;;6.40;99.90;;;;;;5018424;28;19935;-77
2023/04/19 04:40:50;;;;;;;;;;;6.50;99.90;;;;;;5037609;28;19983;-77
2023/04/19 04:43:15;;;;;;;;;;;6.40;99.90;;;;;;5018532;28;20697;-77
2023/04/19 04:45:43;;;;;;;;;;;6.30;99.90;;;;;;5020248;28;19986;-76
2023/04/19 04:48:08;;;;;;;;;;;6.20;99.90;;;;;;5017974;28;20019;-77
2023/04/19 04:50:34;;;;;;;;;;;6.30;99.90;;;;;;5019282;28;20042;-76
2023/04/19 04:52:59;;;;;;;;;;;6.30;99.90;;;;;;5021903;28;20380;-77
2023/04/19 04:55:25;;;;;;;;;;;6.40;99.90;;;;;;5019487;28;19917;-76
2023/04/19 04:57:50;;;;;;;;;;;6.90;99.90;;;;;;4994751;28;19925;-77
2023/04/19 05:00:16;;;;;;;;;;;7.00;99.90;;;;;;5034855;28;19921;-77
2023/04/19 05:02:42;;;;;;;;;;;7.40;99.90;;;;;;5035874;28;20015;-76
2023/04/19 05:05:10;;;;;;;;;;;7.30;99.90;;;;;;5015283;28;19929;-77
2023/04/19 05:07:35;;;;;;;;;;;7.50;99.90;;;;;;5001233;28;19921;-77
2023/04/19 05:10:01;;;;;;;;;;;7.60;99.90;;;;;;5002141;28;19939;-77
2023/04/19 05:12:26;;;;;;;;;;;7.70;99.90;;;;;;5001018;28;21590;-77
2023/04/19 05:14:52;;;;;;;;;;;7.90;99.90;;;;;;5000423;28;19991;-76
2023/04/19 05:17:18;;;;;;;;;;;8.10;99.90;;;;;;5001281;28;20415;-77
2023/04/19 05:19:43;;;;;;;;;;;8.10;99.90;;;;;;4991604;28;19921;-77
2023/04/19 05:22:09;;;;;;;;;;;8.70;99.90;;;;;;5038507;28;19923;-77
2023/04/19 05:24:34;;;;;;;;;;;8.70;99.90;;;;;;5010902;28;19929;-77
2023/04/19 05:27:00;;;;;;;;;;;8.60;99.90;;;;;;5017427;28;20305;-76
2023/04/19 05:29:26;;;;;;;;;;;8.90;99.90;;;;;;5016335;28;19927;-77
2023/04/19 05:31:51;;;;;;;;;;;9.60;99.90;;;;;;5020715;28;20293;-77
2023/04/19 05:34:17;;;;;;;;;;;10.00;99.90;;;;;;5019645;28;20305;-76
2023/04/19 05:36:42;;;;;;;;;;;9.70;99.90;;;;;;5018553;28;19921;-76
2023/04/19 05:39:08;;;;;;;;;;;9.80;99.90;;;;;;5036386;28;19921;-77
2023/04/19 05:41:33;;;;;;;;;;;9.60;99.90;;;;;;5037124;28;19927;-77
2023/04/19 05:43:59;;;;;;;;;;;9.70;99.90;;;;;;5035557;28;20412;-77
2023/04/19 05:46:25;;;;;;;;;;;10.30;99.90;;;;;;5030338;28;19920;-77
2023/04/19 05:48:50;;;;;;;;;;;10.00;99.90;;;;;;5019801;28;19921;-76
2023/04/19 05:51:17;;;;;;;;;;;9.20;99.90;;;;;;5000595;28;19974;-76
2023/04/19 05:53:43;;;;;;;;;;;8.40;99.90;;;;;;5020442;28;19921;-77
2023/04/19 05:56:09;;;;;;;;;;;8.20;99.90;;;;;;5021380;28;19928;-76
2023/04/19 05:58:35;;;;;;;;;;;8.20;99.90;;;;;;5018748;28;19921;-77
2023/04/19 06:01:01;;;;;;;;;;;8.30;99.90;;;;;;5019962;28;19924;-77
2023/04/19 06:03:27;;;;;;;;;;;8.20;99.90;;;;;;5037060;28;19920;-77
2023/04/19 06:05:52;;;;;;;;;;;8.20;99.90;;;;;;5019365;28;20432;-77
2023/04/19 06:08:18;;;;;;;;;;;8.70;99.90;;;;;;5019535;28;19920;-77
2023/04/19 06:10:46;;;;;;;;;;;8.80;99.90;;;;;;5018015;28;19920;-77
2023/04/19 06:13:12;;;;;;;;;;;8.80;99.90;;;;;;5018498;28;19924;-77
2023/04/19 06:15:38;;;;;;;;;;;8.70;99.90;;;;;;5017752;28;19928;-77
2023/04/19 06:18:08;;;;;;;;;;;8.60;99.90;;;;;;5015965;28;19917;-76
2023/04/19 06:20:35;;;;;;;;;;;8.80;99.90;;;;;;5015566;28;20016;-76
2023/04/19 06:23:00;;;;;;;;;;;8.60;99.90;;;;;;5037328;28;19921;-75
2023/04/19 06:25:26;;;;;;;;;;;8.70;99.90;;;;;;5018838;28;19927;-76
2023/04/19 06:27:51;;;;;;;;;;;9.00;99.90;;;;;;5034031;28;19931;-76
2023/04/19 06:30:17;;;;;;;;;;;8.90;99.90;;;;;;5035372;28;20043;-76
2023/04/19 06:32:42;;;;;;;;;;;9.00;99.90;;;;;;5019975;28;19925;-76
2023/04/19 06:35:08;;;;;;;;;;;8.80;99.90;;;;;;5030736;28;19921;-76
2023/04/19 06:37:34;;;;;;;;;;;8.90;99.90;;;;;;5019508;28;19920;-77
2023/04/19 06:39:59;;;;;;;;;;;9.00;99.90;;;;;;5034248;28;19936;-77
2023/04/19 06:42:26;;;;;;;;;;;9.00;99.90;;;;;;5019568;28;19936;-76
2023/04/19 06:44:52;;;;;;;;;;;9.50;99.90;;;;;;5011403;28;20662;-76
2023/04/19 06:47:17;;;;;;;;;;;9.60;99.90;;;;;;5005008;28;19978;-77
2023/04/19 06:49:43;;;;;;;;;;;9.60;99.90;;;;;;5004609;28;20011;-77
2023/04/19 06:52:09;;;;;;;;;;;9.40;99.90;;;;;;5009012;28;20687;-77
2023/04/19 06:54:34;;;;;;;;;;;9.80;99.90;;;;;;5023995;28;19921;-78
2023/04/19 06:57:01;;;;;;;;;;;9.40;99.90;;;;;;5005180;28;19920;-77
2023/04/19 06:59:27;;;;;;;;;;;9.70;99.90;;;;;;4984167;28;20535;-77
2023/04/19 07:01:52;;;;;;;;;;;9.70;99.90;;;;;;5010677;28;20417;-78
2023/04/19 07:04:18;;;;;;;;;;;9.30;99.90;;;;;;5016008;28;19936;-78
2023/04/19 07:06:47;;;;;;;;;;;9.50;99.90;;;;;;5015579;28;19929;-79
2023/04/19 07:09:12;;;;;;;;;;;9.50;99.90;;;;;;5018277;28;19928;-78
2023/04/19 07:11:38;;;;;;;;;;;9.60;99.90;;;;;;5014511;28;19924;-77
2023/04/19 07:14:03;;;;;;;;;;;9.90;99.90;;;;;;5015497;28;19928;-76
2023/04/19 07:16:29;;;;;;;;;;;9.90;99.90;;;;;;5020664;28;19928;-75
2023/04/19 07:18:55;;;;;;;;;;;10.00;99.90;;;;;;5019597;28;19952;-77
2023/04/19 07:21:20;;;;;;;;;;;10.10;99.90;;;;;;5018645;28;19920;-77
2023/04/19 07:23:46;;;;;;;;;;;10.00;99.90;;;;;;5017568;28;19917;-77
2023/04/19 07:26:13;;;;;;;;;;;10.00;99.90;;;;;;5021429;28;19924;-78
2023/04/19 07:28:39;;;;;;;;;;;10.10;99.90;;;;;;5017726;28;19921;-76
2023/04/19 07:31:05;;;;;;;;;;;10.70;99.90;;;;;;5020259;28;19927;-76
2023/04/19 07:33:31;;;;;;;;;;;10.70;99.90;;;;;;5001685;28;19929;-77
2023/04/19 07:35:56;;;;;;;;;;;10.60;99.90;;;;;;5019905;28;19935;-76
2023/04/19 07:38:22;;;;;;;;;;;10.50;99.90;;;;;;5002571;28;19987;-78
2023/04/19 07:40:47;;;;;;;;;;;10.20;99.90;;;;;;5008773;28;19935;-77
2023/04/19 07:43:13;;;;;;;;;;;10.50;99.90;;;;;;5022774;28;19924;-77
2023/04/19 07:45:39;;;;;;;;;;;10.30;99.90;;;;;;5034867;28;19931;-77
2023/04/19 07:48:05;;;;;;;;;;;10.30;99.90;;;;;;5021528;28;19929;-77
2023/04/19 07:50:30;;;;;;;;;;;10.70;99.90;;;;;;5018781;28;20538;-77
2023/04/19 07:52:56;;;;;;;;;;;10.70;99.90;;;;;;5037245;28;20608;-77
2023/04/19 07:55:21;;;;;;;;;;;11.00;99.90;;;;;;5017221;28;19939;-77
2023/04/19 07:57:47;;;;;;;;;;;11.10;99.90;;;;;;5021536;28;19924;-78
2023/04/19 08:00:14;;;;;;;;;;;10.60;99.90;;;;;;5019657;28;19928;-77
2023/04/19 08:02:46;;;;;;;;;;;10.80;99.90;;;;;;5016057;28;19936;-77
2023/04/19 08:05:13;;;;;;;;;;;11.40;99.90;;;;;;5029661;28;19920;-77
2023/04/19 08:07:39;;;;;;;;;;;11.60;99.90;;;;;;5027836;28;19921;-76
2023/04/19 08:10:05;;;;;;;;;;;11.00;99.90;;;;;;5008997;28;20039;-77
2023/04/19 08:12:31;;;;;;;;;;;10.90;99.90;;;;;;5028287;28;19921;-77
2023/04/19 08:14:57;;;;;;;;;;;11.10;99.90;;;;;;5003168;28;20014;-78
2023/04/19 08:17:23;;;;;;;;;;;11.20;99.90;;;;;;5015582;28;20333;-77
2023/04/19 08:19:49;;;;;;;;;;;11.50;99.90;;;;;;5036788;28;20347;-78
2023/04/19 08:22:16;;;;;;;;;;;11.10;98.90;;;;;;5020438;28;19920;-78
2023/04/19 08:24:41;;;;;;;;;;;11.30;99.30;;;;;;5034934;28;20527;-78
2023/04/19 08:27:08;;;;;;;;;;;11.30;99.90;;;;;;5003585;28;19920;-78
2023/04/19 08:29:33;;;;;;;;;;;11.10;98.70;;;;;;5014823;28;19921;-78
2023/04/19 08:32:00;;;;;;;;;;;11.10;98.50;;;;;;5017480;28;19920;-77
2023/04/19 08:34:26;;;;;;;;;;;11.10;99.50;;;;;;5019078;28;19928;-78
2023/04/19 08:36:52;;;;;;;;;;;11.10;97.00;;;;;;5018435;28;19927;-78
2023/04/19 08:39:17;;;;;;;;;;;11.30;97.60;;;;;;5032564;28;19921;-78
2023/04/19 08:41:43;;;;;;;;;;;11.40;97.70;;;;;;5016542;28;19920;-79
2023/04/19 08:44:12;;;;;;;;;;;11.80;97.60;;;;;;5036623;28;20015;-76
2023/04/19 08:46:37;;;;;;;;;;;11.50;95.40;;;;;;5018655;28;19964;-77
2023/04/19 08:49:07;;;;;;;;;;;11.70;99.40;;;;;;5016735;28;20020;-76
2023/04/19 08:51:32;;;;;;;;;;;11.80;95.70;;;;;;5024094;28;20423;-78
2023/04/19 08:53:59;;;;;;;;;;;11.70;93.90;;;;;;5009915;28;20601;-78
2023/04/19 08:56:25;;;;;;;;;;;11.90;97.80;;;;;;5012087;28;20502;-78
2023/04/19 08:58:51;;;;;;;;;;;12.50;96.80;;;;;;5006384;28;19956;-76
2023/04/19 09:01:16;;;;;;;;;;;12.40;96.80;;;;;;5017021;28;20549;-77
2023/04/19 09:03:43;;;;;;;;;;;12.50;94.30;;;;;;5019700;28;19928;-78
2023/04/19 09:06:10;;;;;;;;;;;12.40;93.60;;;;;;5018162;28;19932;-78
2023/04/19 09:08:36;;;;;;;;;;;12.30;91.60;;;;;;5019930;28;19925;-78
2023/04/19 09:11:02;;;;;;;;;;;12.30;90.50;;;;;;4990888;28;19944;-76
2023/04/19 09:13:28;;;;;;;;;;;12.30;91.50;;;;;;5010155;28;19932;-77
2023/04/19 09:15:56;;;;;;;;;;;12.10;90.00;;;;;;5036579;28;20314;-77
2023/04/19 09:18:21;;;;;;;;;;;12.40;92.20;;;;;;5017773;28;19920;-79
2023/04/19 09:20:48;;;;;;;;;;;12.20;90.50;;;;;;5036508;28;19921;-77
2023/04/19 09:23:15;;;;;;;;;;;12.60;94.10;;;;;;5035522;28;20317;-77
2023/04/19 09:25:50;;;;;;;;;;;12.70;91.20;;;;;;5017487;28;19917;-78
2023/04/19 09:28:16;;;;;;;;;;;12.70;86.80;;;;;;5035559;28;20412;-78
2023/04/19 09:30:42;;;;;;;;;;;13.00;91.00;;;;;;5019132;28;19964;-77
2023/04/19 09:33:07;;;;;;;;;;;12.80;88.70;;;;;;5020652;28;19920;-77
2023/04/19 09:35:40;;;;;;;;;;;12.90;89.70;;;;;;5021140;28;20012;-77
2023/04/19 09:38:05;;;;;;;;;;;13.00;90.90;;;;;;5018094;28;19921;-78
2023/04/19 09:40:31;;;;;;;;;;;13.00;90.30;;;;;;5035589;28;19970;-79
2023/04/19 09:42:56;;;;;;;;;;;12.80;91.00;;;;;;5037300;28;20004;-77
2023/04/19 09:45:22;;;;;;;;;;;12.90;87.50;;;;;;5016037;28;19925;-78
2023/04/19 09:48:06;;;;;;;;;;;13.00;86.20;;;;;;5018767;28;19925;-77
2023/04/19 09:50:31;;;;;;;;;;;13.80;90.60;;;;;;5021138;28;20019;-78
2023/04/19 09:52:57;;;;;;;;;;;12.80;85.20;;;;;;5020965;28;19928;-77
2023/04/19 09:55:24;;;;;;;;;;;13.00;88.20;;;;;;5037676;28;19948;-79
2023/04/19 09:57:50;;;;;;;;;;;13.20;87.30;;;;;;5017665;28;20451;-78
2023/04/19 10:00:16;;;;;;;;;;;13.50;89.60;;;;;;5018247;28;20007;-76
2023/04/19 10:02:42;;;;;;;;;;;13.00;87.50;;;;;;5022086;28;19936;-77
2023/04/19 10:05:08;;;;;;;;;;;13.40;88.30;;;;;;5039621;28;19929;-77
2023/04/19 10:07:34;;;;;;;;;;;13.00;86.00;;;;;;5015628;28;19924;-77
2023/04/19 10:10:06;;;;;;;;;;;13.70;90.60;;;;;;5019862;28;19963;-76
2023/04/19 10:12:32;;;;;;;;;;;14.10;92.40;;;;;;5036967;28;20229;-77
2023/04/19 10:14:57;;;;;;;;;;;14.20;92.90;;;;;;5021639;28;19916;-77
2023/04/19 10:17:23;;;;;;;;;;;14.50;88.80;;;;;;5018060;28;19920;-77
2023/04/19 10:20:05;;;;;;;;;;;14.00;86.50;;;;;;5017238;28;20267;-77
2023/04/19 10:22:32;;;;;;;;;;;14.20;89.40;;;;;;5017131;28;19917;-77
2023/04/19 10:25:26;;;;;;;;;;;14.20;89.20;;;;;;5030032;28;19928;-76
2023/04/19 10:27:52;;;;;;;;;;;14.20;84.50;;;;;;4999813;28;20401;-77
2023/04/19 10:30:18;;;;;;;;;;;14.20;87.20;;;;;;5033356;28;20007;-76
2023/04/19 10:32:45;;;;;;;;;;;14.20;85.80;;;;;;5018116;28;19929;-77
2023/04/19 10:35:18;;;;;;;;;;;14.10;84.00;;;;;;5017700;28;20026;-76
2023/04/19 10:38:04;;;;;;;;;;;14.50;85.90;;;;;;5018734;28;19927;-78
2023/04/19 10:40:48;;;;;;;;;;;14.00;78.30;;;;;;5016067;28;20608;-77
2023/04/19 10:43:15;;;;;;;;;;;14.50;82.50;;;;;;5016826;28;19920;-76
2023/04/19 10:45:40;;;;;;;;;;;14.50;77.40;;;;;;5020042;28;19974;-77
2023/04/19 10:48:29;;;;;;;;;;;14.50;76.20;;;;;;5020429;28;19964;-77
2023/04/19 10:51:01;;;;;;;;;;;14.40;78.70;;;;;;5023045;28;19967;-76
2023/04/19 10:53:46;;;;;;;;;;;14.30;79.00;;;;;;5036076;28;19960;-77
2023/04/19 10:56:12;;;;;;;;;;;14.80;81.90;;;;;;5022459;28;19963;-76
2023/04/19 10:58:56;;;;;;;;;;;15.10;80.00;;;;;;5021830;28;20716;-76
2023/04/19 11:01:31;;;;;;;;;;;14.70;77.20;;;;;;5023033;28;19959;-76
2023/04/19 11:03:57;;;;;;;;;;;15.30;76.70;;;;;;5034224;28;19916;-76
2023/04/19 11:06:26;;;;;;;;;;;15.20;77.90;;;;;;5041317;28;19924;-76
2023/04/19 11:08:51;;;;;;;;;;;14.90;78.40;;;;;;5025920;28;19972;-76
2023/04/19 11:11:18;;;;;;;;;;;14.90;76.90;;;;;;5036979;28;20016;-76
2023/04/19 11:13:45;;;;;;;;;;;14.60;74.60;;;;;;5017830;28;19920;-76
2023/04/19 11:16:11;;;;;;;;;;;15.00;78.00;;;;;;5018314;28;19928;-76
2023/04/19 11:18:37;;;;;;;;;;;15.20;78.00;;;;;;5025696;28;19927;-76
2023/04/19 11:21:02;;;;;;;;;;;15.20;76.30;;;;;;5014032;28;19925;-76
2023/04/19 11:23:28;;;;;;;;;;;15.20;80.20;;;;;;5008619;28;19920;-76
2023/04/19 11:25:54;;;;;;;;;;;15.60;83.10;;;;;;5028669;28;19991;-76
2023/04/19 11:28:23;;;;;;;;;;;15.00;73.40;;;;;;5022957;28;19928;-77
2023/04/19 11:30:48;;;;;;;;;;;15.30;75.30;;;;;;5007926;28;20157;-77
2023/04/19 11:33:14;;;;;;;;;;;15.40;76.80;;;;;;5008020;28;19928;-77
2023/04/19 11:35:42;;;;;;;;;;;15.30;82.10;;;;;;5007025;28;20028;-76
2023/04/19 11:38:07;;;;;;;;;;;15.30;75.70;;;;;;5025650;28;19920;-77
2023/04/19 11:40:33;;;;;;;;;;;15.00;76.20;;;;;;5008225;28;20435;-77
2023/04/19 11:43:03;;;;;;;;;;;15.50;75.30;;;;;;5007706;28;19921;-77
2023/04/19 11:45:29;;;;;;;;;;;15.40;77.60;;;;;;5025804;28;19921;-76
2023/04/19 11:47:55;;;;;;;;;;;15.30;77.90;;;;;;5008374;28;19920;-77
2023/04/19 11:50:40;;;;;;;;;;;15.00;75.00;;;;;;5009304;28;20420;-77
2023/04/19 11:53:21;;;;;;;;;;;15.10;79.70;;;;;;5008960;28;19967;-76
2023/04/19 11:55:51;;;;;;;;;;;15.50;82.70;;;;;;4997940;28;19928;-77
2023/04/19 11:58:28;;;;;;;;;;;15.30;77.50;;;;;;5006998;28;19921;-74
2023/04/19 12:01:02;;;;;;;;;;;15.20;78.00;;;;;;5013814;28;19927;-78
2023/04/19 12:03:28;;;;;;;;;;;14.70;80.20;;;;;;4993164;28;20074;-77
2023/04/19 12:05:58;;;;;;;;;;;14.80;78.80;;;;;;5024415;28;19983;-77
2023/04/19 12:08:37;;;;;;;;;;;15.20;80.40;;;;;;5006830;28;19960;-76
2023/04/19 12:11:03;;;;;;;;;;;15.70;87.50;;;;;;5006736;28;20015;-77
2023/04/19 12:13:31;;;;;;;;;;;15.60;79.20;;;;;;5006533;28;19920;-77
2023/04/19 12:15:57;;;;;;;;;;;15.20;78.30;;;;;;5009383;28;19928;-77
2023/04/19 12:18:23;;;;;;;;;;;15.80;90.00;;;;;;5010103;28;19924;-77
2023/04/19 12:20:49;;;;;;;;;;;15.80;81.60;;;;;;5008019;28;20480;-77
2023/04/19 12:23:16;;;;;;;;;;;15.80;77.20;;;;;;5008063;28;19947;-78
2023/04/19 12:25:42;;;;;;;;;;;15.20;78.70;;;;;;5027336;28;19920;-77
2023/04/19 12:28:08;;;;;;;;;;;15.40;78.60;;;;;;5010141;28;19927;-76
2023/04/19 12:30:35;;;;;;;;;;;15.30;79.80;;;;;;5022143;28;19920;-77
2023/04/19 12:33:01;;;;;;;;;;;15.30;83.30;;;;;;5007131;28;19928;-77
2023/04/19 12:35:27;;;;;;;;;;;16.00;83.20;;;;;;5026380;28;19921;-76
2023/04/19 12:37:53;;;;;;;;;;;15.80;82.30;;;;;;5024422;28;19929;-77
2023/04/19 12:40:19;;;;;;;;;;;16.00;80.00;;;;;;5014424;28;20358;-76
2023/04/19 12:42:44;;;;;;;;;;;15.80;79.40;;;;;;5027113;28;20399;-77
2023/04/19 12:45:11;;;;;;;;;;;15.70;79.80;;;;;;5006828;28;19955;-76
2023/04/19 12:47:36;;;;;;;;;;;16.20;80.60;;;;;;5008066;28;19921;-76
2023/04/19 12:50:02;;;;;;;;;;;15.60;76.10;;;;;;5022462;28;19925;-76
2023/04/19 12:52:28;;;;;;;;;;;15.50;79.40;;;;;;4993639;28;19924;-76
2023/04/19 12:54:53;;;;;;;;;;;15.80;77.40;;;;;;5006957;28;20006;-76
2023/04/19 12:57:19;;;;;;;;;;;15.80;80.20;;;;;;5007005;28;20313;-75
2023/04/19 12:59:44;;;;;;;;;;;16.10;83.80;;;;;;5008503;28;19932;-77
2023/04/19 13:02:10;;;;;;;;;;;15.70;77.20;;;;;;5006602;28;19921;-77
2023/04/19 13:04:35;;;;;;;;;;;15.60;82.70;;;;;;5025451;28;20082;-77
2023/04/19 13:07:01;;;;;;;;;;;15.50;78.10;;;;;;5008158;28;20201;-77
2023/04/19 13:09:27;;;;;;;;;;;15.90;80.90;;;;;;5026596;28;19921;-77
2023/04/19 13:11:56;;;;;;;;;;;15.40;80.60;;;;;;5023288;28;19935;-77
2023/04/19 13:14:22;;;;;;;;;;;15.50;81.20;;;;;;5004724;28;20366;-76
2023/04/19 13:16:48;;;;;;;;;;;15.50;83.20;;;;;;5005288;28;19928;-76
2023/04/19 13:19:13;;;;;;;;;;;15.80;79.30;;;;;;5004441;28;19920;-76
2023/04/19 13:21:39;;;;;;;;;;;16.20;84.80;;;;;;5026670;28;20633;-76
2023/04/19 13:24:04;;;;;;;;;;;15.80;81.00;;;;;;5008790;28;20285;-77
2023/04/19 13:26:30;;;;;;;;;;;15.80;80.40;;;;;;5006739;28;19971;-77
2023/04/19 13:28:56;;;;;;;;;;;16.20;84.50;;;;;;5024066;28;20450;-76
2023/04/19 13:31:21;;;;;;;;;;;16.00;80.60;;;;;;5024202;28;19928;-77
2023/04/19 13:33:47;;;;;;;;;;;15.80;79.40;;;;;;5006474;28;19948;-77
2023/04/19 13:36:12;;;;;;;;;;;16.10;86.40;;;;;;5007312;28;19924;-77
2023/04/19 13:38:38;;;;;;;;;;;15.90;84.00;;;;;;5009047;28;20063;-76
2023/04/19 13:41:03;;;;;;;;;;;16.20;86.80;;;;;;5020782;28;19921;-77
2023/04/19 13:43:29;;;;;;;;;;;15.70;83.80;;;;;;5018908;28;19921;-76
2023/04/19 13:45:54;;;;;;;;;;;15.40;81.50;;;;;;5019788;28;20031;-77
2023/04/19 13:48:20;;;;;;;;;;;15.60;84.70;;;;;;5016217;28;19921;-76
2023/04/19 13:50:46;;;;;;;;;;;15.40;79.10;;;;;;5003835;28;19980;-76
2023/04/19 13:53:11;;;;;;;;;;;15.80;82.50;;;;;;5019906;28;19960;-76
2023/04/19 13:55:37;;;;;;;;;;;15.90;81.20;;;;;;5021953;28;19929;-76
2023/04/19 13:58:02;;;;;;;;;;;15.90;81.70;;;;;;5000671;28;19931;-76
2023/04/19 14:00:28;;;;;;;;;;;15.70;81.10;;;;;;5003840;28;20012;-77
2023/04/19 14:02:54;;;;;;;;;;;15.70;80.90;;;;;;5018516;28;19921;-76
2023/04/19 14:05:19;;;;;;;;;;;15.60;77.10;;;;;;5036179;28;19943;-76
2023/04/19 14:07:45;;;;;;;;;;;16.00;78.40;;;;;;5015310;28;20003;-76
2023/04/19 14:10:11;;;;;;;;;;;16.30;80.40;;;;;;5018286;28;19975;-76
2023/04/19 14:12:36;;;;;;;;;;;16.50;85.10;;;;;;5033216;28;19916;-76
2023/04/19 14:15:02;;;;;;;;;;;16.00;76.40;;;;;;5015163;28;20283;-76
2023/04/19 14:17:27;;;;;;;;;;;16.10;79.60;;;;;;5032066;28;19924;-76
2023/04/19 14:19:53;;;;;;;;;;;16.20;84.20;;;;;;5033902;28;20630;-77